sensor_id;sensor_type;location;lat;lon;timestamp;P1;durP1;ratioP1;P2;durP2;ratioP2
71360;SDS011;59166;48.908;1.870;2023-08-08T00:04:50;8.33;;;2.30;;
71360;SDS011;59166;48.908;1.870;2023-08-08T00:09:50;6.90;;;2.00;;
71360;SDS011;59166;48.908;1.870;2023-08-08T00:14:53;6.27;;;2.00;;
71360;SDS011;59166;48.908;1.870;2023-08-08T00:19:54;7.38;;;1.90;;
71360;SDS011;59166;48.908;1.870;2023-08-08T00:24:54;6.23;;;2.10;;
71360;SDS011;59166;48.908;1.870;2023-08-08T00:29:56;8.97;;;2.40;;
71360;SDS011;59166;48.908;1.870;2023-08-08T00:34:57;7.80;;;2.20;;
71360;SDS011;59166;48.908;1.870;2023-08-08T00:39:57;6.73;;;2.00;;
71360;SDS011;59166;48.908;1.870;2023-08-08T00:44:59;6.05;;;2.13;;
71360;SDS011;59166;48.908;1.870;2023-08-08T00:50:00;6.03;;;2.10;;
71360;SDS011;59166;48.908;1.870;2023-08-08T00:55:02;7.47;;;2.20;;
71360;SDS011;59166;48.908;1.870;2023-08-08T01:00:06;6.78;;;2.08;;
71360;SDS011;59166;48.908;1.870;2023-08-08T01:05:08;7.13;;;2.20;;
71360;SDS011;59166;48.908;1.870;2023-08-08T01:10:09;6.70;;;2.08;;
71360;SDS011;59166;48.908;1.870;2023-08-08T01:15:16;6.60;;;2.05;;
71360;SDS011;59166;48.908;1.870;2023-08-08T01:20:17;10.03;;;2.10;;
71360;SDS011;59166;48.908;1.870;2023-08-08T01:25:20;8.15;;;2.40;;
71360;SDS011;59166;48.908;1.870;2023-08-08T01:30:21;7.68;;;2.30;;
71360;SDS011;59166;48.908;1.870;2023-08-08T01:35:22;8.13;;;2.30;;
71360;SDS011;59166;48.908;1.870;2023-08-08T01:40:27;11.63;;;2.45;;
71360;SDS011;59166;48.908;1.870;2023-08-08T01:45:29;7.07;;;2.27;;
71360;SDS011;59166;48.908;1.870;2023-08-08T01:50:30;10.63;;;2.30;;
71360;SDS011;59166;48.908;1.870;2023-08-08T01:55:32;8.63;;;2.40;;
71360;SDS011;59166;48.908;1.870;2023-08-08T02:00:33;7.47;;;2.35;;
71360;SDS011;59166;48.908;1.870;2023-08-08T02:05:33;6.63;;;2.20;;
71360;SDS011;59166;48.908;1.870;2023-08-08T02:10:35;7.25;;;2.20;;
71360;SDS011;59166;48.908;1.870;2023-08-08T02:15:36;9.40;;;2.40;;
71360;SDS011;59166;48.908;1.870;2023-08-08T02:20:37;9.32;;;2.38;;
71360;SDS011;59166;48.908;1.870;2023-08-08T02:25:39;8.03;;;2.30;;
71360;SDS011;59166;48.908;1.870;2023-08-08T02:30:39;8.73;;;2.40;;
71360;SDS011;59166;48.908;1.870;2023-08-08T02:35:40;7.77;;;2.30;;
71360;SDS011;59166;48.908;1.870;2023-08-08T02:40:42;9.17;;;2.20;;
71360;SDS011;59166;48.908;1.870;2023-08-08T02:45:42;7.53;;;2.20;;
71360;SDS011;59166;48.908;1.870;2023-08-08T02:50:43;7.67;;;2.20;;
71360;SDS011;59166;48.908;1.870;2023-08-08T02:55:45;9.23;;;2.33;;
71360;SDS011;59166;48.908;1.870;2023-08-08T03:00:46;7.60;;;2.50;;
71360;SDS011;59166;48.908;1.870;2023-08-08T03:05:47;6.90;;;2.10;;
71360;SDS011;59166;48.908;1.870;2023-08-08T03:10:49;6.43;;;2.27;;
71360;SDS011;59166;48.908;1.870;2023-08-08T03:15:50;8.37;;;2.30;;
71360;SDS011;59166;48.908;1.870;2023-08-08T03:20:50;8.37;;;2.37;;
71360;SDS011;59166;48.908;1.870;2023-08-08T03:25:53;7.57;;;2.47;;
71360;SDS011;59166;48.908;1.870;2023-08-08T03:30:53;8.90;;;2.40;;
71360;SDS011;59166;48.908;1.870;2023-08-08T03:35:54;7.23;;;2.30;;
71360;SDS011;59166;48.908;1.870;2023-08-08T03:40:56;6.30;;;2.20;;
71360;SDS011;59166;48.908;1.870;2023-08-08T03:45:56;11.00;;;2.60;;
71360;SDS011;59166;48.908;1.870;2023-08-08T03:50:57;7.38;;;2.20;;
71360;SDS011;59166;48.908;1.870;2023-08-08T03:55:59;9.37;;;2.40;;
71360;SDS011;59166;48.908;1.870;2023-08-08T04:01:00;6.18;;;2.30;;
71360;SDS011;59166;48.908;1.870;2023-08-08T04:06:00;8.87;;;2.40;;
71360;SDS011;59166;48.908;1.870;2023-08-08T04:11:02;8.00;;;2.37;;
71360;SDS011;59166;48.908;1.870;2023-08-08T04:16:03;8.90;;;2.40;;
71360;SDS011;59166;48.908;1.870;2023-08-08T04:21:04;8.67;;;2.20;;
71360;SDS011;59166;48.908;1.870;2023-08-08T04:26:06;9.00;;;2.78;;
71360;SDS011;59166;48.908;1.870;2023-08-08T04:31:06;6.70;;;2.30;;
71360;SDS011;59166;48.908;1.870;2023-08-08T04:36:07;7.20;;;2.38;;
71360;SDS011;59166;48.908;1.870;2023-08-08T04:41:09;7.27;;;2.37;;
71360;SDS011;59166;48.908;1.870;2023-08-08T04:46:10;8.13;;;2.63;;
71360;SDS011;59166;48.908;1.870;2023-08-08T04:51:10;7.67;;;2.50;;
71360;SDS011;59166;48.908;1.870;2023-08-08T04:56:12;7.80;;;2.33;;
71360;SDS011;59166;48.908;1.870;2023-08-08T05:01:13;10.82;;;2.60;;
71360;SDS011;59166;48.908;1.870;2023-08-08T05:06:13;7.23;;;2.47;;
71360;SDS011;59166;48.908;1.870;2023-08-08T05:11:15;10.23;;;2.50;;
71360;SDS011;59166;48.908;1.870;2023-08-08T05:16:16;7.65;;;2.38;;
71360;SDS011;59166;48.908;1.870;2023-08-08T05:21:17;10.25;;;2.38;;
71360;SDS011;59166;48.908;1.870;2023-08-08T05:26:20;9.07;;;2.40;;
71360;SDS011;59166;48.908;1.870;2023-08-08T05:31:21;7.13;;;2.50;;
71360;SDS011;59166;48.908;1.870;2023-08-08T05:36:21;11.50;;;2.40;;
71360;SDS011;59166;48.908;1.870;2023-08-08T05:41:23;8.95;;;2.17;;
71360;SDS011;59166;48.908;1.870;2023-08-08T05:46:24;9.03;;;2.27;;
71360;SDS011;59166;48.908;1.870;2023-08-08T05:51:24;7.60;;;2.20;;
71360;SDS011;59166;48.908;1.870;2023-08-08T05:56:27;8.30;;;2.30;;
71360;SDS011;59166;48.908;1.870;2023-08-08T06:01:28;9.02;;;2.40;;
71360;SDS011;59166;48.908;1.870;2023-08-08T06:06:29;10.47;;;2.30;;
71360;SDS011;59166;48.908;1.870;2023-08-08T06:11:31;7.13;;;2.22;;
71360;SDS011;59166;48.908;1.870;2023-08-08T06:16:31;8.13;;;2.20;;
71360;SDS011;59166;48.908;1.870;2023-08-08T06:21:32;8.02;;;2.50;;
71360;SDS011;59166;48.908;1.870;2023-08-08T06:26:34;9.17;;;2.50;;
71360;SDS011;59166;48.908;1.870;2023-08-08T06:31:35;9.03;;;2.03;;
71360;SDS011;59166;48.908;1.870;2023-08-08T06:36:35;6.93;;;2.27;;
71360;SDS011;59166;48.908;1.870;2023-08-08T06:41:37;9.50;;;2.23;;
71360;SDS011;59166;48.908;1.870;2023-08-08T06:46:38;8.82;;;2.28;;
71360;SDS011;59166;48.908;1.870;2023-08-08T06:51:39;9.17;;;2.30;;
71360;SDS011;59166;48.908;1.870;2023-08-08T06:56:41;7.97;;;2.00;;
71360;SDS011;59166;48.908;1.870;2023-08-08T07:01:42;8.85;;;2.33;;
71360;SDS011;59166;48.908;1.870;2023-08-08T07:06:43;7.35;;;2.08;;
71360;SDS011;59166;48.908;1.870;2023-08-08T07:11:45;5.70;;;1.90;;
71360;SDS011;59166;48.908;1.870;2023-08-08T07:16:46;9.05;;;1.90;;
71360;SDS011;59166;48.908;1.870;2023-08-08T07:21:47;9.17;;;1.90;;
71360;SDS011;59166;48.908;1.870;2023-08-08T07:26:49;8.47;;;1.90;;
71360;SDS011;59166;48.908;1.870;2023-08-08T07:31:51;6.57;;;1.88;;
71360;SDS011;59166;48.908;1.870;2023-08-08T07:36:52;6.87;;;1.90;;
71360;SDS011;59166;48.908;1.870;2023-08-08T07:41:54;6.93;;;2.00;;
71360;SDS011;59166;48.908;1.870;2023-08-08T07:46:55;6.45;;;1.85;;
71360;SDS011;59166;48.908;1.870;2023-08-08T07:51:56;6.97;;;2.00;;
71360;SDS011;59166;48.908;1.870;2023-08-08T07:56:59;7.75;;;2.00;;
71360;SDS011;59166;48.908;1.870;2023-08-08T08:02:00;7.00;;;1.70;;
71360;SDS011;59166;48.908;1.870;2023-08-08T08:07:00;6.87;;;1.83;;
71360;SDS011;59166;48.908;1.870;2023-08-08T08:12:04;6.70;;;1.52;;
71360;SDS011;59166;48.908;1.870;2023-08-08T08:17:05;6.30;;;1.63;;
71360;SDS011;59166;48.908;1.870;2023-08-08T08:22:06;6.78;;;1.60;;
71360;SDS011;59166;48.908;1.870;2023-08-08T08:27:08;7.22;;;1.65;;
71360;SDS011;59166;48.908;1.870;2023-08-08T08:32:09;4.37;;;1.40;;
71360;SDS011;59166;48.908;1.870;2023-08-08T08:37:10;6.93;;;1.60;;
71360;SDS011;59166;48.908;1.870;2023-08-08T08:42:12;6.90;;;1.47;;
71360;SDS011;59166;48.908;1.870;2023-08-08T08:47:15;5.28;;;1.42;;
71360;SDS011;59166;48.908;1.870;2023-08-08T08:52:20;4.23;;;1.40;;
71360;SDS011;59166;48.908;1.870;2023-08-08T08:57:23;5.83;;;1.60;;
71360;SDS011;59166;48.908;1.870;2023-08-08T09:02:24;5.82;;;1.63;;
71360;SDS011;59166;48.908;1.870;2023-08-08T09:07:25;5.27;;;1.60;;
71360;SDS011;59166;48.908;1.870;2023-08-08T09:12:30;6.53;;;2.00;;
71360;SDS011;59166;48.908;1.870;2023-08-08T09:17:31;6.38;;;1.40;;
71360;SDS011;59166;48.908;1.870;2023-08-08T09:22:32;7.13;;;1.60;;
71360;SDS011;59166;48.908;1.870;2023-08-08T09:27:35;5.75;;;1.60;;
71360;SDS011;59166;48.908;1.870;2023-08-08T09:32:35;5.78;;;1.60;;
71360;SDS011;59166;48.908;1.870;2023-08-08T09:37:36;6.27;;;1.60;;
71360;SDS011;59166;48.908;1.870;2023-08-08T09:42:39;6.53;;;1.58;;
71360;SDS011;59166;48.908;1.870;2023-08-08T09:47:41;5.60;;;1.60;;
71360;SDS011;59166;48.908;1.870;2023-08-08T09:52:42;6.00;;;1.50;;
71360;SDS011;59166;48.908;1.870;2023-08-08T09:57:45;5.32;;;1.55;;
71360;SDS011;59166;48.908;1.870;2023-08-08T10:02:47;6.20;;;1.60;;
71360;SDS011;59166;48.908;1.870;2023-08-08T10:07:48;6.60;;;1.70;;
71360;SDS011;59166;48.908;1.870;2023-08-08T10:12:50;8.88;;;1.88;;
71360;SDS011;59166;48.908;1.870;2023-08-08T10:17:53;7.13;;;1.83;;
71360;SDS011;59166;48.908;1.870;2023-08-08T10:22:55;7.27;;;1.93;;
71360;SDS011;59166;48.908;1.870;2023-08-08T10:28:04;6.47;;;1.73;;
71360;SDS011;59166;48.908;1.870;2023-08-08T10:33:06;8.00;;;1.80;;
71360;SDS011;59166;48.908;1.870;2023-08-08T10:38:16;7.53;;;1.97;;
71360;SDS011;59166;48.908;1.870;2023-08-08T10:43:24;7.85;;;1.80;;
71360;SDS011;59166;48.908;1.870;2023-08-08T10:48:26;7.60;;;1.70;;
71360;SDS011;59166;48.908;1.870;2023-08-08T10:53:27;6.07;;;1.53;;
71360;SDS011;59166;48.908;1.870;2023-08-08T10:58:36;5.60;;;1.70;;
71360;SDS011;59166;48.908;1.870;2023-08-08T11:03:38;7.88;;;1.63;;
71360;SDS011;59166;48.908;1.870;2023-08-08T11:08:40;5.47;;;1.70;;
71360;SDS011;59166;48.908;1.870;2023-08-08T11:13:43;5.18;;;1.67;;
71360;SDS011;59166;48.908;1.870;2023-08-08T11:18:43;4.97;;;1.63;;
71360;SDS011;59166;48.908;1.870;2023-08-08T11:23:47;7.37;;;1.80;;
71360;SDS011;59166;48.908;1.870;2023-08-08T11:28:52;6.15;;;1.60;;
71360;SDS011;59166;48.908;1.870;2023-08-08T11:33:53;5.72;;;1.50;;
71360;SDS011;59166;48.908;1.870;2023-08-08T11:38:54;6.67;;;1.70;;
71360;SDS011;59166;48.908;1.870;2023-08-08T11:43:57;6.45;;;1.70;;
71360;SDS011;59166;48.908;1.870;2023-08-08T11:49:02;6.90;;;1.60;;
71360;SDS011;59166;48.908;1.870;2023-08-08T11:54:04;8.83;;;1.70;;
71360;SDS011;59166;48.908;1.870;2023-08-08T11:59:07;4.68;;;1.40;;
71360;SDS011;59166;48.908;1.870;2023-08-08T12:04:08;6.20;;;1.70;;
71360;SDS011;59166;48.908;1.870;2023-08-08T12:09:11;6.72;;;1.40;;
71360;SDS011;59166;48.908;1.870;2023-08-08T12:14:13;6.07;;;1.60;;
71360;SDS011;59166;48.908;1.870;2023-08-08T12:19:14;5.55;;;1.50;;
71360;SDS011;59166;48.908;1.870;2023-08-08T12:24:15;5.15;;;1.50;;
71360;SDS011;59166;48.908;1.870;2023-08-08T12:29:17;5.23;;;1.60;;
71360;SDS011;59166;48.908;1.870;2023-08-08T12:34:18;5.25;;;1.70;;
71360;SDS011;59166;48.908;1.870;2023-08-08T12:39:19;4.80;;;1.70;;
71360;SDS011;59166;48.908;1.870;2023-08-08T12:44:21;6.22;;;1.63;;
71360;SDS011;59166;48.908;1.870;2023-08-08T12:49:22;5.10;;;1.50;;
71360;SDS011;59166;48.908;1.870;2023-08-08T12:54:23;6.88;;;1.63;;
71360;SDS011;59166;48.908;1.870;2023-08-08T12:59:25;6.35;;;1.65;;
71360;SDS011;59166;48.908;1.870;2023-08-08T13:04:26;4.57;;;1.47;;
71360;SDS011;59166;48.908;1.870;2023-08-08T13:09:27;5.10;;;1.50;;
71360;SDS011;59166;48.908;1.870;2023-08-08T13:19:31;5.85;;;1.52;;
71360;SDS011;59166;48.908;1.870;2023-08-08T13:29:34;4.45;;;1.33;;
71360;SDS011;59166;48.908;1.870;2023-08-08T13:34:35;4.27;;;1.33;;
71360;SDS011;59166;48.908;1.870;2023-08-08T13:39:36;4.22;;;1.40;;
71360;SDS011;59166;48.908;1.870;2023-08-08T13:44:38;6.40;;;1.50;;
71360;SDS011;59166;48.908;1.870;2023-08-08T13:49:39;4.70;;;1.40;;
71360;SDS011;59166;48.908;1.870;2023-08-08T13:54:40;5.75;;;1.58;;
71360;SDS011;59166;48.908;1.870;2023-08-08T13:59:42;6.00;;;1.43;;
71360;SDS011;59166;48.908;1.870;2023-08-08T14:04:43;4.47;;;1.40;;
71360;SDS011;59166;48.908;1.870;2023-08-08T14:09:44;4.47;;;1.40;;
71360;SDS011;59166;48.908;1.870;2023-08-08T14:14:46;5.20;;;1.30;;
71360;SDS011;59166;48.908;1.870;2023-08-08T14:19:47;5.55;;;1.30;;
71360;SDS011;59166;48.908;1.870;2023-08-08T14:24:48;6.50;;;1.43;;
71360;SDS011;59166;48.908;1.870;2023-08-08T14:29:50;3.83;;;1.20;;
71360;SDS011;59166;48.908;1.870;2023-08-08T14:34:51;3.45;;;1.20;;
71360;SDS011;59166;48.908;1.870;2023-08-08T14:39:52;4.13;;;1.30;;
71360;SDS011;59166;48.908;1.870;2023-08-08T14:44:55;3.97;;;1.30;;
71360;SDS011;59166;48.908;1.870;2023-08-08T14:49:55;5.67;;;1.40;;
71360;SDS011;59166;48.908;1.870;2023-08-08T14:54:56;3.20;;;1.30;;
71360;SDS011;59166;48.908;1.870;2023-08-08T14:59:59;4.40;;;1.43;;
71360;SDS011;59166;48.908;1.870;2023-08-08T15:05:00;4.53;;;1.30;;
71360;SDS011;59166;48.908;1.870;2023-08-08T15:10:01;5.25;;;1.42;;
71360;SDS011;59166;48.908;1.870;2023-08-08T15:15:04;5.17;;;1.20;;
71360;SDS011;59166;48.908;1.870;2023-08-08T15:20:06;4.05;;;1.20;;
71360;SDS011;59166;48.908;1.870;2023-08-08T15:25:08;4.53;;;1.20;;
71360;SDS011;59166;48.908;1.870;2023-08-08T15:30:11;4.37;;;1.40;;
71360;SDS011;59166;48.908;1.870;2023-08-08T15:35:11;3.70;;;1.35;;
71360;SDS011;59166;48.908;1.870;2023-08-08T15:40:12;3.00;;;1.30;;
71360;SDS011;59166;48.908;1.870;2023-08-08T15:45:15;4.50;;;1.48;;
71360;SDS011;59166;48.908;1.870;2023-08-08T15:50:16;4.55;;;1.30;;
71360;SDS011;59166;48.908;1.870;2023-08-08T15:55:17;5.87;;;1.40;;
71360;SDS011;59166;48.908;1.870;2023-08-08T16:00:19;4.10;;;1.50;;
71360;SDS011;59166;48.908;1.870;2023-08-08T16:05:20;3.67;;;1.40;;
71360;SDS011;59166;48.908;1.870;2023-08-08T16:10:22;4.47;;;1.30;;
71360;SDS011;59166;48.908;1.870;2023-08-08T16:15:25;4.05;;;1.42;;
71360;SDS011;59166;48.908;1.870;2023-08-08T16:20:26;5.38;;;1.60;;
71360;SDS011;59166;48.908;1.870;2023-08-08T16:25:26;4.07;;;1.27;;
71360;SDS011;59166;48.908;1.870;2023-08-08T16:30:29;5.70;;;1.40;;
71360;SDS011;59166;48.908;1.870;2023-08-08T16:35:30;6.40;;;1.40;;
71360;SDS011;59166;48.908;1.870;2023-08-08T16:40:30;4.68;;;1.40;;
71360;SDS011;59166;48.908;1.870;2023-08-08T16:45:33;5.43;;;1.60;;
71360;SDS011;59166;48.908;1.870;2023-08-08T16:50:33;4.18;;;1.40;;
71360;SDS011;59166;48.908;1.870;2023-08-08T16:55:34;5.10;;;1.40;;
71360;SDS011;59166;48.908;1.870;2023-08-08T17:00:36;4.20;;;1.30;;
71360;SDS011;59166;48.908;1.870;2023-08-08T17:05:37;5.70;;;1.60;;
71360;SDS011;59166;48.908;1.870;2023-08-08T17:10:38;6.63;;;1.50;;
71360;SDS011;59166;48.908;1.870;2023-08-08T17:15:40;5.18;;;1.50;;
71360;SDS011;59166;48.908;1.870;2023-08-08T17:20:41;5.30;;;1.47;;
71360;SDS011;59166;48.908;1.870;2023-08-08T17:25:42;5.15;;;1.50;;
71360;SDS011;59166;48.908;1.870;2023-08-08T17:30:44;5.93;;;1.70;;
71360;SDS011;59166;48.908;1.870;2023-08-08T17:35:45;5.32;;;1.73;;
71360;SDS011;59166;48.908;1.870;2023-08-08T17:40:46;5.90;;;1.70;;
71360;SDS011;59166;48.908;1.870;2023-08-08T17:45:48;6.93;;;1.97;;
71360;SDS011;59166;48.908;1.870;2023-08-08T17:50:49;6.32;;;1.50;;
71360;SDS011;59166;48.908;1.870;2023-08-08T17:55:53;5.57;;;1.60;;
71360;SDS011;59166;48.908;1.870;2023-08-08T18:00:55;5.80;;;1.60;;
71360;SDS011;59166;48.908;1.870;2023-08-08T18:05:56;6.43;;;1.65;;
71360;SDS011;59166;48.908;1.870;2023-08-08T18:10:57;5.73;;;1.63;;
71360;SDS011;59166;48.908;1.870;2023-08-08T18:15:59;6.35;;;1.70;;
71360;SDS011;59166;48.908;1.870;2023-08-08T18:21:00;6.70;;;1.90;;
71360;SDS011;59166;48.908;1.870;2023-08-08T18:26:01;7.27;;;1.83;;
71360;SDS011;59166;48.908;1.870;2023-08-08T18:31:03;6.67;;;1.60;;
71360;SDS011;59166;48.908;1.870;2023-08-08T18:36:04;5.75;;;1.60;;
71360;SDS011;59166;48.908;1.870;2023-08-08T18:41:05;7.78;;;1.83;;
71360;SDS011;59166;48.908;1.870;2023-08-08T18:46:07;5.10;;;1.70;;
71360;SDS011;59166;48.908;1.870;2023-08-08T18:51:08;5.38;;;1.90;;
71360;SDS011;59166;48.908;1.870;2023-08-08T18:56:09;5.57;;;1.80;;
71360;SDS011;59166;48.908;1.870;2023-08-08T19:01:11;7.95;;;1.80;;
71360;SDS011;59166;48.908;1.870;2023-08-08T19:06:12;7.77;;;1.80;;
71360;SDS011;59166;48.908;1.870;2023-08-08T19:11:13;7.10;;;1.77;;
71360;SDS011;59166;48.908;1.870;2023-08-08T19:16:15;6.03;;;1.70;;
71360;SDS011;59166;48.908;1.870;2023-08-08T19:21:16;7.10;;;2.10;;
71360;SDS011;59166;48.908;1.870;2023-08-08T19:26:17;6.28;;;2.03;;
71360;SDS011;59166;48.908;1.870;2023-08-08T19:31:19;5.87;;;1.60;;
71360;SDS011;59166;48.908;1.870;2023-08-08T19:36:20;5.00;;;1.60;;
71360;SDS011;59166;48.908;1.870;2023-08-08T19:41:21;5.47;;;1.50;;
71360;SDS011;59166;48.908;1.870;2023-08-08T19:46:23;5.28;;;1.60;;
71360;SDS011;59166;48.908;1.870;2023-08-08T19:51:24;5.80;;;1.67;;
71360;SDS011;59166;48.908;1.870;2023-08-08T19:56:25;7.07;;;1.77;;
71360;SDS011;59166;48.908;1.870;2023-08-08T20:01:28;6.15;;;1.65;;
71360;SDS011;59166;48.908;1.870;2023-08-08T20:06:28;4.80;;;1.63;;
71360;SDS011;59166;48.908;1.870;2023-08-08T20:11:29;6.00;;;1.70;;
71360;SDS011;59166;48.908;1.870;2023-08-08T20:16:32;7.55;;;2.00;;
71360;SDS011;59166;48.908;1.870;2023-08-08T20:21:33;8.82;;;1.80;;
71360;SDS011;59166;48.908;1.870;2023-08-08T20:26:34;5.03;;;1.50;;
71360;SDS011;59166;48.908;1.870;2023-08-08T20:31:36;6.55;;;1.65;;
71360;SDS011;59166;48.908;1.870;2023-08-08T20:36:37;5.00;;;1.63;;
71360;SDS011;59166;48.908;1.870;2023-08-08T20:41:38;5.03;;;1.67;;
71360;SDS011;59166;48.908;1.870;2023-08-08T20:46:40;5.40;;;1.83;;
71360;SDS011;59166;48.908;1.870;2023-08-08T20:51:41;6.67;;;1.90;;
71360;SDS011;59166;48.908;1.870;2023-08-08T20:56:43;5.55;;;1.70;;
71360;SDS011;59166;48.908;1.870;2023-08-08T21:01:46;6.70;;;2.10;;
71360;SDS011;59166;48.908;1.870;2023-08-08T21:06:47;6.53;;;2.10;;
71360;SDS011;59166;48.908;1.870;2023-08-08T21:11:48;8.17;;;2.23;;
71360;SDS011;59166;48.908;1.870;2023-08-08T21:16:50;8.52;;;3.20;;
71360;SDS011;59166;48.908;1.870;2023-08-08T21:21:51;10.17;;;2.80;;
71360;SDS011;59166;48.908;1.870;2023-08-08T21:26:52;8.88;;;2.70;;
71360;SDS011;59166;48.908;1.870;2023-08-08T21:31:54;8.82;;;2.58;;
71360;SDS011;59166;48.908;1.870;2023-08-08T21:36:55;6.50;;;2.40;;
71360;SDS011;59166;48.908;1.870;2023-08-08T21:41:56;8.43;;;2.28;;
71360;SDS011;59166;48.908;1.870;2023-08-08T21:46:58;7.27;;;2.03;;
71360;SDS011;59166;48.908;1.870;2023-08-08T21:51:59;6.25;;;2.10;;
71360;SDS011;59166;48.908;1.870;2023-08-08T21:57:00;7.15;;;2.08;;
71360;SDS011;59166;48.908;1.870;2023-08-08T22:02:02;8.53;;;2.13;;
71360;SDS011;59166;48.908;1.870;2023-08-08T22:07:03;7.70;;;2.05;;
71360;SDS011;59166;48.908;1.870;2023-08-08T22:12:05;6.03;;;2.00;;
71360;SDS011;59166;48.908;1.870;2023-08-08T22:17:07;6.43;;;1.97;;
71360;SDS011;59166;48.908;1.870;2023-08-08T22:22:08;5.95;;;1.98;;
71360;SDS011;59166;48.908;1.870;2023-08-08T22:27:09;6.40;;;2.10;;
71360;SDS011;59166;48.908;1.870;2023-08-08T22:32:12;5.80;;;2.00;;
71360;SDS011;59166;48.908;1.870;2023-08-08T22:37:12;8.32;;;2.15;;
71360;SDS011;59166;48.908;1.870;2023-08-08T22:42:13;8.82;;;2.30;;
71360;SDS011;59166;48.908;1.870;2023-08-08T22:47:16;7.27;;;2.37;;
71360;SDS011;59166;48.908;1.870;2023-08-08T22:52:16;6.43;;;2.20;;
71360;SDS011;59166;48.908;1.870;2023-08-08T22:57:17;6.83;;;2.10;;
71360;SDS011;59166;48.908;1.870;2023-08-08T23:02:20;6.88;;;2.28;;
71360;SDS011;59166;48.908;1.870;2023-08-08T23:07:20;7.30;;;2.10;;
71360;SDS011;59166;48.908;1.870;2023-08-08T23:12:21;6.20;;;2.15;;
71360;SDS011;59166;48.908;1.870;2023-08-08T23:17:24;6.13;;;2.10;;
71360;SDS011;59166;48.908;1.870;2023-08-08T23:22:25;6.07;;;2.30;;
71360;SDS011;59166;48.908;1.870;2023-08-08T23:27:26;7.68;;;2.20;;
71360;SDS011;59166;48.908;1.870;2023-08-08T23:32:28;7.43;;;2.30;;
71360;SDS011;59166;48.908;1.870;2023-08-08T23:37:29;6.13;;;2.20;;
71360;SDS011;59166;48.908;1.870;2023-08-08T23:42:30;5.50;;;2.00;;
71360;SDS011;59166;48.908;1.870;2023-08-08T23:47:33;10.87;;;2.40;;
71360;SDS011;59166;48.908;1.870;2023-08-08T23:58:11;7.28;;;2.10;;
